sensor_id;sensor_type;location;lat;lon;timestamp;P1;durP1;ratioP1;P2;durP2;ratioP2
11763;SDS011;5939;56.522;14.950;2023-04-24T00:00:32;3.00;;;2.70;;
11763;SDS011;5939;56.522;14.950;2023-04-24T00:02:58;2.70;;;2.50;;
11763;SDS011;5939;56.522;14.950;2023-04-24T00:05:24;2.70;;;2.50;;
11763;SDS011;5939;56.522;14.950;2023-04-24T00:07:50;2.80;;;2.60;;
11763;SDS011;5939;56.522;14.950;2023-04-24T00:10:19;2.67;;;2.47;;
11763;SDS011;5939;56.522;14.950;2023-04-24T00:12:45;2.90;;;2.70;;
11763;SDS011;5939;56.522;14.950;2023-04-24T00:15:10;3.13;;;2.83;;
11763;SDS011;5939;56.522;14.950;2023-04-24T00:17:36;2.60;;;2.40;;
11763;SDS011;5939;56.522;14.950;2023-04-24T00:20:02;3.03;;;2.73;;
11763;SDS011;5939;56.522;14.950;2023-04-24T00:22:30;2.63;;;2.43;;
11763;SDS011;5939;56.522;14.950;2023-04-24T00:24:56;2.83;;;2.57;;
11763;SDS011;5939;56.522;14.950;2023-04-24T00:27:22;2.93;;;2.73;;
11763;SDS011;5939;56.522;14.950;2023-04-24T00:29:48;2.70;;;2.50;;
11763;SDS011;5939;56.522;14.950;2023-04-24T00:32:13;2.70;;;2.50;;
11763;SDS011;5939;56.522;14.950;2023-04-24T00:34:40;2.70;;;2.50;;
11763;SDS011;5939;56.522;14.950;2023-04-24T00:37:06;3.00;;;2.80;;
11763;SDS011;5939;56.522;14.950;2023-04-24T00:39:32;2.50;;;2.30;;
11763;SDS011;5939;56.522;14.950;2023-04-24T00:41:58;2.93;;;2.73;;
11763;SDS011;5939;56.522;14.950;2023-04-24T00:44:24;2.60;;;2.40;;
11763;SDS011;5939;56.522;14.950;2023-04-24T00:46:50;2.67;;;2.47;;
11763;SDS011;5939;56.522;14.950;2023-04-24T00:49:19;2.57;;;2.37;;
11763;SDS011;5939;56.522;14.950;2023-04-24T00:51:45;2.40;;;2.20;;
11763;SDS011;5939;56.522;14.950;2023-04-24T00:54:12;2.37;;;2.20;;
11763;SDS011;5939;56.522;14.950;2023-04-24T00:56:38;2.57;;;2.37;;
11763;SDS011;5939;56.522;14.950;2023-04-24T00:59:05;2.53;;;2.33;;
11763;SDS011;5939;56.522;14.950;2023-04-24T01:01:31;2.20;;;2.00;;
11763;SDS011;5939;56.522;14.950;2023-04-24T01:03:57;2.57;;;2.37;;
11763;SDS011;5939;56.522;14.950;2023-04-24T01:06:23;2.37;;;2.17;;
11763;SDS011;5939;56.522;14.950;2023-04-24T01:08:52;2.43;;;2.23;;
11763;SDS011;5939;56.522;14.950;2023-04-24T01:11:20;2.77;;;2.57;;
11763;SDS011;5939;56.522;14.950;2023-04-24T01:13:47;2.30;;;2.10;;
11763;SDS011;5939;56.522;14.950;2023-04-24T01:16:16;2.67;;;2.47;;
11763;SDS011;5939;56.522;14.950;2023-04-24T01:18:42;2.37;;;2.17;;
11763;SDS011;5939;56.522;14.950;2023-04-24T01:21:09;2.10;;;1.90;;
11763;SDS011;5939;56.522;14.950;2023-04-24T01:23:37;2.40;;;2.20;;
11763;SDS011;5939;56.522;14.950;2023-04-24T01:26:03;2.20;;;2.00;;
11763;SDS011;5939;56.522;14.950;2023-04-24T01:28:29;2.00;;;1.90;;
11763;SDS011;5939;56.522;14.950;2023-04-24T01:30:55;2.10;;;1.90;;
11763;SDS011;5939;56.522;14.950;2023-04-24T01:33:21;2.20;;;2.00;;
11763;SDS011;5939;56.522;14.950;2023-04-24T01:35:47;1.93;;;1.77;;
11763;SDS011;5939;56.522;14.950;2023-04-24T01:38:13;1.80;;;1.70;;
11763;SDS011;5939;56.522;14.950;2023-04-24T01:40:39;2.07;;;1.90;;
11763;SDS011;5939;56.522;14.950;2023-04-24T01:43:05;1.80;;;1.70;;
11763;SDS011;5939;56.522;14.950;2023-04-24T01:45:31;2.07;;;1.97;;
11763;SDS011;5939;56.522;14.950;2023-04-24T01:47:57;1.70;;;1.60;;
11763;SDS011;5939;56.522;14.950;2023-04-24T01:50:22;2.03;;;1.93;;
11763;SDS011;5939;56.522;14.950;2023-04-24T01:52:48;2.00;;;1.90;;
11763;SDS011;5939;56.522;14.950;2023-04-24T01:55:14;1.70;;;1.60;;
11763;SDS011;5939;56.522;14.950;2023-04-24T01:57:39;1.80;;;1.70;;
11763;SDS011;5939;56.522;14.950;2023-04-24T02:00:05;1.80;;;1.70;;
11763;SDS011;5939;56.522;14.950;2023-04-24T02:02:32;1.57;;;1.47;;
11763;SDS011;5939;56.522;14.950;2023-04-24T02:04:58;1.80;;;1.70;;
11763;SDS011;5939;56.522;14.950;2023-04-24T02:07:24;1.90;;;1.80;;
11763;SDS011;5939;56.522;14.950;2023-04-24T02:09:50;1.50;;;1.40;;
11763;SDS011;5939;56.522;14.950;2023-04-24T02:12:15;2.70;;;1.90;;
11763;SDS011;5939;56.522;14.950;2023-04-24T02:14:42;2.10;;;1.90;;
11763;SDS011;5939;56.522;14.950;2023-04-24T02:17:09;1.97;;;1.80;;
11763;SDS011;5939;56.522;14.950;2023-04-24T02:19:34;2.10;;;1.90;;
11763;SDS011;5939;56.522;14.950;2023-04-24T02:22:00;2.10;;;1.90;;
11763;SDS011;5939;56.522;14.950;2023-04-24T02:24:26;1.90;;;1.80;;
11763;SDS011;5939;56.522;14.950;2023-04-24T02:26:51;1.97;;;1.87;;
11763;SDS011;5939;56.522;14.950;2023-04-24T02:29:17;2.20;;;2.00;;
11763;SDS011;5939;56.522;14.950;2023-04-24T02:31:43;1.97;;;1.87;;
11763;SDS011;5939;56.522;14.950;2023-04-24T02:34:08;2.10;;;1.90;;
11763;SDS011;5939;56.522;14.950;2023-04-24T02:36:34;1.87;;;1.77;;
11763;SDS011;5939;56.522;14.950;2023-04-24T02:39:00;2.10;;;1.83;;
11763;SDS011;5939;56.522;14.950;2023-04-24T02:41:26;2.30;;;2.10;;
11763;SDS011;5939;56.522;14.950;2023-04-24T02:43:56;1.90;;;1.80;;
11763;SDS011;5939;56.522;14.950;2023-04-24T02:46:22;2.20;;;2.00;;
11763;SDS011;5939;56.522;14.950;2023-04-24T02:48:48;1.87;;;1.70;;
11763;SDS011;5939;56.522;14.950;2023-04-24T02:51:13;2.17;;;1.97;;
11763;SDS011;5939;56.522;14.950;2023-04-24T02:53:39;2.20;;;2.00;;
11763;SDS011;5939;56.522;14.950;2023-04-24T02:56:05;1.77;;;1.67;;
11763;SDS011;5939;56.522;14.950;2023-04-24T02:58:31;1.90;;;1.70;;
11763;SDS011;5939;56.522;14.950;2023-04-24T03:00:57;1.90;;;1.80;;
11763;SDS011;5939;56.522;14.950;2023-04-24T03:03:22;2.30;;;2.10;;
11763;SDS011;5939;56.522;14.950;2023-04-24T03:05:48;2.00;;;1.80;;
11763;SDS011;5939;56.522;14.950;2023-04-24T03:08:14;1.93;;;1.77;;
11763;SDS011;5939;56.522;14.950;2023-04-24T03:10:40;1.80;;;1.70;;
11763;SDS011;5939;56.522;14.950;2023-04-24T03:13:05;2.27;;;1.93;;
11763;SDS011;5939;56.522;14.950;2023-04-24T03:15:31;2.30;;;2.10;;
11763;SDS011;5939;56.522;14.950;2023-04-24T03:17:57;1.97;;;1.87;;
11763;SDS011;5939;56.522;14.950;2023-04-24T03:20:22;1.90;;;1.80;;
11763;SDS011;5939;56.522;14.950;2023-04-24T03:22:48;2.13;;;2.00;;
11763;SDS011;5939;56.522;14.950;2023-04-24T03:25:14;2.03;;;1.90;;
11763;SDS011;5939;56.522;14.950;2023-04-24T03:27:39;2.00;;;1.90;;
11763;SDS011;5939;56.522;14.950;2023-04-24T03:30:08;2.20;;;2.00;;
11763;SDS011;5939;56.522;14.950;2023-04-24T03:32:34;2.20;;;2.00;;
11763;SDS011;5939;56.522;14.950;2023-04-24T03:34:59;2.13;;;2.03;;
11763;SDS011;5939;56.522;14.950;2023-04-24T03:37:25;2.07;;;1.97;;
11763;SDS011;5939;56.522;14.950;2023-04-24T03:39:51;2.30;;;2.10;;
11763;SDS011;5939;56.522;14.950;2023-04-24T03:42:17;2.43;;;2.00;;
11763;SDS011;5939;56.522;14.950;2023-04-24T03:44:43;2.10;;;1.90;;
11763;SDS011;5939;56.522;14.950;2023-04-24T03:47:09;2.50;;;2.30;;
11763;SDS011;5939;56.522;14.950;2023-04-24T03:49:34;2.53;;;2.33;;
11763;SDS011;5939;56.522;14.950;2023-04-24T03:52:00;2.30;;;2.10;;
11763;SDS011;5939;56.522;14.950;2023-04-24T03:54:26;2.50;;;2.30;;
11763;SDS011;5939;56.522;14.950;2023-04-24T03:56:51;2.43;;;2.23;;
11763;SDS011;5939;56.522;14.950;2023-04-24T03:59:17;2.43;;;2.23;;
11763;SDS011;5939;56.522;14.950;2023-04-24T04:01:43;2.70;;;2.50;;
11763;SDS011;5939;56.522;14.950;2023-04-24T04:04:08;2.47;;;2.27;;
11763;SDS011;5939;56.522;14.950;2023-04-24T04:06:34;2.57;;;2.37;;
11763;SDS011;5939;56.522;14.950;2023-04-24T04:09:01;2.80;;;2.60;;
11763;SDS011;5939;56.522;14.950;2023-04-24T04:11:27;2.80;;;2.60;;
11763;SDS011;5939;56.522;14.950;2023-04-24T04:13:52;2.73;;;2.53;;
11763;SDS011;5939;56.522;14.950;2023-04-24T04:16:18;3.10;;;2.80;;
11763;SDS011;5939;56.522;14.950;2023-04-24T04:18:44;2.97;;;2.77;;
11763;SDS011;5939;56.522;14.950;2023-04-24T04:21:10;3.47;;;3.17;;
11763;SDS011;5939;56.522;14.950;2023-04-24T04:23:36;3.50;;;3.20;;
11763;SDS011;5939;56.522;14.950;2023-04-24T04:26:02;3.47;;;3.13;;
11763;SDS011;5939;56.522;14.950;2023-04-24T04:28:28;3.30;;;3.00;;
11763;SDS011;5939;56.522;14.950;2023-04-24T04:30:55;3.07;;;2.80;;
11763;SDS011;5939;56.522;14.950;2023-04-24T04:33:22;3.27;;;2.97;;
11763;SDS011;5939;56.522;14.950;2023-04-24T04:35:48;3.20;;;2.83;;
11763;SDS011;5939;56.522;14.950;2023-04-24T04:38:14;3.30;;;3.07;;
11763;SDS011;5939;56.522;14.950;2023-04-24T04:40:42;3.30;;;3.00;;
11763;SDS011;5939;56.522;14.950;2023-04-24T04:43:08;3.10;;;2.90;;
11763;SDS011;5939;56.522;14.950;2023-04-24T04:45:33;3.30;;;3.00;;
11763;SDS011;5939;56.522;14.950;2023-04-24T04:47:59;2.67;;;2.47;;
11763;SDS011;5939;56.522;14.950;2023-04-24T04:50:26;3.20;;;2.90;;
11763;SDS011;5939;56.522;14.950;2023-04-24T04:52:52;3.27;;;2.97;;
11763;SDS011;5939;56.522;14.950;2023-04-24T04:55:18;3.40;;;3.00;;
11763;SDS011;5939;56.522;14.950;2023-04-24T04:57:46;3.50;;;3.20;;
11763;SDS011;5939;56.522;14.950;2023-04-24T05:00:12;3.47;;;2.87;;
11763;SDS011;5939;56.522;14.950;2023-04-24T05:02:38;3.00;;;2.70;;
11763;SDS011;5939;56.522;14.950;2023-04-24T05:05:05;3.07;;;2.87;;
11763;SDS011;5939;56.522;14.950;2023-04-24T05:07:31;2.90;;;2.70;;
11763;SDS011;5939;56.522;14.950;2023-04-24T05:09:57;3.03;;;2.60;;
11763;SDS011;5939;56.522;14.950;2023-04-24T05:12:22;3.60;;;3.30;;
11763;SDS011;5939;56.522;14.950;2023-04-24T05:14:48;3.70;;;2.83;;
11763;SDS011;5939;56.522;14.950;2023-04-24T05:17:14;2.93;;;2.63;;
11763;SDS011;5939;56.522;14.950;2023-04-24T05:19:40;3.47;;;3.17;;
11763;SDS011;5939;56.522;14.950;2023-04-24T05:22:05;3.20;;;2.90;;
11763;SDS011;5939;56.522;14.950;2023-04-24T05:24:34;3.93;;;3.47;;
11763;SDS011;5939;56.522;14.950;2023-04-24T05:27:01;3.77;;;3.23;;
11763;SDS011;5939;56.522;14.950;2023-04-24T05:29:27;4.23;;;3.83;;
11763;SDS011;5939;56.522;14.950;2023-04-24T05:31:55;3.97;;;3.27;;
11763;SDS011;5939;56.522;14.950;2023-04-24T05:34:21;7.30;;;3.73;;
11763;SDS011;5939;56.522;14.950;2023-04-24T05:36:47;4.20;;;3.80;;
11763;SDS011;5939;56.522;14.950;2023-04-24T05:39:13;3.63;;;3.23;;
11763;SDS011;5939;56.522;14.950;2023-04-24T05:41:39;3.73;;;3.30;;
11763;SDS011;5939;56.522;14.950;2023-04-24T05:44:05;4.17;;;3.67;;
11763;SDS011;5939;56.522;14.950;2023-04-24T05:46:31;4.60;;;3.80;;
11763;SDS011;5939;56.522;14.950;2023-04-24T05:48:57;4.23;;;3.83;;
11763;SDS011;5939;56.522;14.950;2023-04-24T05:51:23;4.37;;;3.90;;
11763;SDS011;5939;56.522;14.950;2023-04-24T05:53:49;5.23;;;4.10;;
11763;SDS011;5939;56.522;14.950;2023-04-24T05:56:14;5.67;;;3.97;;
11763;SDS011;5939;56.522;14.950;2023-04-24T05:58:41;4.10;;;3.70;;
11763;SDS011;5939;56.522;14.950;2023-04-24T06:01:07;4.33;;;3.70;;
11763;SDS011;5939;56.522;14.950;2023-04-24T06:03:32;4.10;;;3.70;;
11763;SDS011;5939;56.522;14.950;2023-04-24T06:05:58;4.10;;;3.70;;
11763;SDS011;5939;56.522;14.950;2023-04-24T06:08:24;3.70;;;3.40;;
11763;SDS011;5939;56.522;14.950;2023-04-24T06:10:50;5.60;;;3.80;;
11763;SDS011;5939;56.522;14.950;2023-04-24T06:13:16;4.20;;;3.80;;
11763;SDS011;5939;56.522;14.950;2023-04-24T06:15:43;4.77;;;4.27;;
11763;SDS011;5939;56.522;14.950;2023-04-24T06:18:08;4.37;;;3.90;;
11763;SDS011;5939;56.522;14.950;2023-04-24T06:20:35;4.20;;;3.80;;
11763;SDS011;5939;56.522;14.950;2023-04-24T06:23:01;4.43;;;3.80;;
11763;SDS011;5939;56.522;14.950;2023-04-24T06:25:27;4.50;;;4.10;;
11763;SDS011;5939;56.522;14.950;2023-04-24T06:27:53;4.80;;;4.27;;
11763;SDS011;5939;56.522;14.950;2023-04-24T06:30:19;4.60;;;4.17;;
11763;SDS011;5939;56.522;14.950;2023-04-24T06:32:45;4.37;;;3.97;;
11763;SDS011;5939;56.522;14.950;2023-04-24T06:35:11;5.20;;;4.70;;
11763;SDS011;5939;56.522;14.950;2023-04-24T06:37:38;5.43;;;4.30;;
11763;SDS011;5939;56.522;14.950;2023-04-24T06:40:05;6.13;;;5.00;;
11763;SDS011;5939;56.522;14.950;2023-04-24T06:42:31;6.23;;;4.87;;
11763;SDS011;5939;56.522;14.950;2023-04-24T06:44:56;6.10;;;4.30;;
11763;SDS011;5939;56.522;14.950;2023-04-24T06:47:22;5.23;;;4.73;;
11763;SDS011;5939;56.522;14.950;2023-04-24T06:49:48;5.30;;;4.33;;
11763;SDS011;5939;56.522;14.950;2023-04-24T06:52:16;5.10;;;4.60;;
11763;SDS011;5939;56.522;14.950;2023-04-24T06:54:41;5.17;;;4.67;;
11763;SDS011;5939;56.522;14.950;2023-04-24T06:57:07;5.30;;;4.70;;
11763;SDS011;5939;56.522;14.950;2023-04-24T06:59:33;5.07;;;4.57;;
11763;SDS011;5939;56.522;14.950;2023-04-24T07:01:59;5.33;;;4.80;;
11763;SDS011;5939;56.522;14.950;2023-04-24T07:04:25;5.83;;;4.83;;
11763;SDS011;5939;56.522;14.950;2023-04-24T07:06:51;5.70;;;4.93;;
11763;SDS011;5939;56.522;14.950;2023-04-24T07:09:20;5.70;;;4.87;;
11763;SDS011;5939;56.522;14.950;2023-04-24T07:11:47;5.20;;;4.70;;
11763;SDS011;5939;56.522;14.950;2023-04-24T07:14:13;5.27;;;4.77;;
11763;SDS011;5939;56.522;14.950;2023-04-24T07:16:39;5.37;;;4.80;;
11763;SDS011;5939;56.522;14.950;2023-04-24T07:19:05;7.00;;;5.40;;
11763;SDS011;5939;56.522;14.950;2023-04-24T07:21:31;5.37;;;4.87;;
11763;SDS011;5939;56.522;14.950;2023-04-24T07:23:57;6.10;;;5.50;;
11763;SDS011;5939;56.522;14.950;2023-04-24T07:26:23;6.07;;;5.47;;
11763;SDS011;5939;56.522;14.950;2023-04-24T07:28:50;6.27;;;5.57;;
11763;SDS011;5939;56.522;14.950;2023-04-24T07:31:16;6.57;;;5.93;;
11763;SDS011;5939;56.522;14.950;2023-04-24T07:33:41;7.43;;;6.07;;
11763;SDS011;5939;56.522;14.950;2023-04-24T07:36:07;8.70;;;6.40;;
11763;SDS011;5939;56.522;14.950;2023-04-24T07:38:33;7.13;;;6.13;;
11763;SDS011;5939;56.522;14.950;2023-04-24T07:40:58;6.10;;;5.50;;
11763;SDS011;5939;56.522;14.950;2023-04-24T07:43:24;6.20;;;5.60;;
11763;SDS011;5939;56.522;14.950;2023-04-24T07:45:50;8.07;;;5.97;;
11763;SDS011;5939;56.522;14.950;2023-04-24T07:48:16;7.70;;;6.37;;
11763;SDS011;5939;56.522;14.950;2023-04-24T07:50:43;7.60;;;6.07;;
11763;SDS011;5939;56.522;14.950;2023-04-24T07:53:09;6.10;;;5.47;;
11763;SDS011;5939;56.522;14.950;2023-04-24T07:55:35;7.40;;;6.47;;
11763;SDS011;5939;56.522;14.950;2023-04-24T07:58:01;6.60;;;5.90;;
11763;SDS011;5939;56.522;14.950;2023-04-24T08:00:26;7.37;;;6.50;;
11763;SDS011;5939;56.522;14.950;2023-04-24T08:02:52;8.70;;;7.00;;
11763;SDS011;5939;56.522;14.950;2023-04-24T08:05:18;7.77;;;6.83;;
11763;SDS011;5939;56.522;14.950;2023-04-24T08:07:45;7.07;;;6.37;;
11763;SDS011;5939;56.522;14.950;2023-04-24T08:10:13;7.30;;;6.47;;
11763;SDS011;5939;56.522;14.950;2023-04-24T08:12:41;8.27;;;6.93;;
11763;SDS011;5939;56.522;14.950;2023-04-24T08:15:06;7.50;;;6.33;;
11763;SDS011;5939;56.522;14.950;2023-04-24T08:17:34;7.47;;;6.60;;
11763;SDS011;5939;56.522;14.950;2023-04-24T08:20:00;7.53;;;6.67;;
11763;SDS011;5939;56.522;14.950;2023-04-24T08:22:27;9.10;;;6.37;;
11763;SDS011;5939;56.522;14.950;2023-04-24T08:24:53;7.37;;;6.30;;
11763;SDS011;5939;56.522;14.950;2023-04-24T08:27:19;7.20;;;6.50;;
11763;SDS011;5939;56.522;14.950;2023-04-24T08:29:45;7.37;;;6.20;;
11763;SDS011;5939;56.522;14.950;2023-04-24T08:32:11;7.57;;;6.33;;
11763;SDS011;5939;56.522;14.950;2023-04-24T08:34:36;8.07;;;7.00;;
11763;SDS011;5939;56.522;14.950;2023-04-24T08:37:02;8.43;;;6.33;;
11763;SDS011;5939;56.522;14.950;2023-04-24T08:39:28;7.50;;;6.70;;
11763;SDS011;5939;56.522;14.950;2023-04-24T08:41:54;8.40;;;6.20;;
11763;SDS011;5939;56.522;14.950;2023-04-24T08:44:21;8.10;;;6.43;;
11763;SDS011;5939;56.522;14.950;2023-04-24T08:46:47;7.67;;;6.70;;
11763;SDS011;5939;56.522;14.950;2023-04-24T08:49:14;6.77;;;5.77;;
11763;SDS011;5939;56.522;14.950;2023-04-24T08:51:42;7.70;;;5.80;;
11763;SDS011;5939;56.522;14.950;2023-04-24T08:54:10;7.03;;;6.13;;
11763;SDS011;5939;56.522;14.950;2023-04-24T08:56:37;7.57;;;6.33;;
11763;SDS011;5939;56.522;14.950;2023-04-24T08:59:05;6.63;;;5.80;;
11763;SDS011;5939;56.522;14.950;2023-04-24T09:01:32;7.03;;;5.80;;
11763;SDS011;5939;56.522;14.950;2023-04-24T09:04:03;7.23;;;5.90;;
11763;SDS011;5939;56.522;14.950;2023-04-24T09:06:30;8.70;;;6.23;;
11763;SDS011;5939;56.522;14.950;2023-04-24T09:08:57;6.53;;;5.33;;
11763;SDS011;5939;56.522;14.950;2023-04-24T09:11:25;5.53;;;4.73;;
11763;SDS011;5939;56.522;14.950;2023-04-24T09:13:53;6.33;;;5.40;;
11763;SDS011;5939;56.522;14.950;2023-04-24T09:16:19;5.83;;;4.97;;
11763;SDS011;5939;56.522;14.950;2023-04-24T09:18:45;5.83;;;4.53;;
11763;SDS011;5939;56.522;14.950;2023-04-24T09:21:11;7.53;;;5.60;;
11763;SDS011;5939;56.522;14.950;2023-04-24T09:23:37;5.80;;;5.20;;
11763;SDS011;5939;56.522;14.950;2023-04-24T09:26:04;5.17;;;4.67;;
11763;SDS011;5939;56.522;14.950;2023-04-24T09:28:30;5.87;;;4.87;;
11763;SDS011;5939;56.522;14.950;2023-04-24T09:31:03;4.97;;;4.40;;
11763;SDS011;5939;56.522;14.950;2023-04-24T09:33:31;5.27;;;4.70;;
11763;SDS011;5939;56.522;14.950;2023-04-24T09:35:56;5.20;;;4.70;;
11763;SDS011;5939;56.522;14.950;2023-04-24T09:38:30;6.27;;;4.50;;
11763;SDS011;5939;56.522;14.950;2023-04-24T09:41:01;5.30;;;4.67;;
11763;SDS011;5939;56.522;14.950;2023-04-24T09:43:29;5.50;;;4.93;;
11763;SDS011;5939;56.522;14.950;2023-04-24T09:45:56;5.73;;;4.10;;
11763;SDS011;5939;56.522;14.950;2023-04-24T09:48:33;4.57;;;4.17;;
11763;SDS011;5939;56.522;14.950;2023-04-24T09:51:04;5.07;;;4.27;;
11763;SDS011;5939;56.522;14.950;2023-04-24T09:53:35;5.33;;;4.43;;
11763;SDS011;5939;56.522;14.950;2023-04-24T09:56:08;5.10;;;4.23;;
11763;SDS011;5939;56.522;14.950;2023-04-24T09:58:35;6.00;;;3.87;;
11763;SDS011;5939;56.522;14.950;2023-04-24T10:01:01;4.50;;;4.10;;
11763;SDS011;5939;56.522;14.950;2023-04-24T10:03:31;4.57;;;4.17;;
11763;SDS011;5939;56.522;14.950;2023-04-24T10:06:01;4.80;;;3.73;;
11763;SDS011;5939;56.522;14.950;2023-04-24T10:08:33;5.00;;;4.00;;
11763;SDS011;5939;56.522;14.950;2023-04-24T10:11:00;4.13;;;3.73;;
11763;SDS011;5939;56.522;14.950;2023-04-24T10:13:26;4.07;;;3.30;;
11763;SDS011;5939;56.522;14.950;2023-04-24T10:15:53;5.47;;;3.53;;
11763;SDS011;5939;56.522;14.950;2023-04-24T10:18:21;4.10;;;3.63;;
11763;SDS011;5939;56.522;14.950;2023-04-24T10:20:47;3.63;;;2.90;;
11763;SDS011;5939;56.522;14.950;2023-04-24T10:23:14;4.47;;;3.33;;
11763;SDS011;5939;56.522;14.950;2023-04-24T10:25:41;5.10;;;3.33;;
11763;SDS011;5939;56.522;14.950;2023-04-24T10:28:07;3.93;;;3.10;;
11763;SDS011;5939;56.522;14.950;2023-04-24T10:30:34;3.40;;;3.10;;
11763;SDS011;5939;56.522;14.950;2023-04-24T10:33:01;3.30;;;2.80;;
11763;SDS011;5939;56.522;14.950;2023-04-24T10:35:31;3.83;;;3.17;;
11763;SDS011;5939;56.522;14.950;2023-04-24T10:38:02;3.33;;;2.97;;
11763;SDS011;5939;56.522;14.950;2023-04-24T10:40:33;3.80;;;3.40;;
11763;SDS011;5939;56.522;14.950;2023-04-24T10:43:04;4.40;;;3.00;;
11763;SDS011;5939;56.522;14.950;2023-04-24T10:45:33;3.90;;;2.60;;
11763;SDS011;5939;56.522;14.950;2023-04-24T10:50:29;3.03;;;2.73;;
11763;SDS011;5939;56.522;14.950;2023-04-24T10:53:07;2.70;;;2.40;;
11763;SDS011;5939;56.522;14.950;2023-04-24T10:55:42;2.77;;;2.50;;
11763;SDS011;5939;56.522;14.950;2023-04-24T10:58:10;3.03;;;2.60;;
11763;SDS011;5939;56.522;14.950;2023-04-24T11:00:37;2.57;;;2.37;;
11763;SDS011;5939;56.522;14.950;2023-04-24T11:03:50;2.43;;;2.23;;
11763;SDS011;5939;56.522;14.950;2023-04-24T11:06:07;3.13;;;2.70;;
11763;SDS011;5939;56.522;14.950;2023-04-24T11:08:42;3.73;;;2.57;;
11763;SDS011;5939;56.522;14.950;2023-04-24T11:11:17;2.53;;;2.33;;
11763;SDS011;5939;56.522;14.950;2023-04-24T11:16:29;2.43;;;2.23;;
11763;SDS011;5939;56.522;14.950;2023-04-24T11:21:43;2.40;;;2.20;;
11763;SDS011;5939;56.522;14.950;2023-04-24T11:24:24;2.37;;;2.17;;
11763;SDS011;5939;56.522;14.950;2023-04-24T11:27:15;3.03;;;2.10;;
11763;SDS011;5939;56.522;14.950;2023-04-24T11:35:00;3.33;;;2.23;;
11763;SDS011;5939;56.522;14.950;2023-04-24T11:37:29;2.50;;;2.30;;
11763;SDS011;5939;56.522;14.950;2023-04-24T11:40:02;2.27;;;2.03;;
11763;SDS011;5939;56.522;14.950;2023-04-24T11:42:33;2.47;;;2.27;;
11763;SDS011;5939;56.522;14.950;2023-04-24T11:45:13;3.00;;;2.13;;
11763;SDS011;5939;56.522;14.950;2023-04-24T11:47:40;2.27;;;2.07;;
11763;SDS011;5939;56.522;14.950;2023-04-24T11:50:10;3.33;;;2.20;;
11763;SDS011;5939;56.522;14.950;2023-04-24T11:52:38;2.33;;;2.13;;
11763;SDS011;5939;56.522;14.950;2023-04-24T11:55:12;2.40;;;2.20;;
11763;SDS011;5939;56.522;14.950;2023-04-24T11:57:51;2.53;;;2.20;;
11763;SDS011;5939;56.522;14.950;2023-04-24T12:00:22;2.50;;;2.30;;
11763;SDS011;5939;56.522;14.950;2023-04-24T12:02:50;2.63;;;2.10;;
11763;SDS011;5939;56.522;14.950;2023-04-24T12:05:20;2.30;;;2.00;;
11763;SDS011;5939;56.522;14.950;2023-04-24T12:07:50;2.80;;;2.13;;
11763;SDS011;5939;56.522;14.950;2023-04-24T12:10:20;1.80;;;1.70;;
11763;SDS011;5939;56.522;14.950;2023-04-24T12:12:47;2.20;;;2.00;;
11763;SDS011;5939;56.522;14.950;2023-04-24T12:15:15;3.13;;;2.30;;
11763;SDS011;5939;56.522;14.950;2023-04-24T12:17:42;4.00;;;2.00;;
11763;SDS011;5939;56.522;14.950;2023-04-24T12:20:08;2.50;;;2.00;;
11763;SDS011;5939;56.522;14.950;2023-04-24T12:22:47;3.43;;;2.00;;
11763;SDS011;5939;56.522;14.950;2023-04-24T12:25:19;2.07;;;1.80;;
11763;SDS011;5939;56.522;14.950;2023-04-24T12:27:46;2.20;;;2.00;;
11763;SDS011;5939;56.522;14.950;2023-04-24T12:30:38;1.70;;;1.60;;
11763;SDS011;5939;56.522;14.950;2023-04-24T12:33:09;2.20;;;2.00;;
11763;SDS011;5939;56.522;14.950;2023-04-24T12:35:35;3.30;;;2.00;;
11763;SDS011;5939;56.522;14.950;2023-04-24T12:38:07;2.07;;;1.87;;
11763;SDS011;5939;56.522;14.950;2023-04-24T12:40:34;2.27;;;1.60;;
11763;SDS011;5939;56.522;14.950;2023-04-24T12:43:00;2.23;;;1.63;;
11763;SDS011;5939;56.522;14.950;2023-04-24T12:45:26;1.93;;;1.77;;
11763;SDS011;5939;56.522;14.950;2023-04-24T12:47:53;2.70;;;1.53;;
11763;SDS011;5939;56.522;14.950;2023-04-24T12:50:18;2.13;;;1.60;;
11763;SDS011;5939;56.522;14.950;2023-04-24T12:52:44;1.97;;;1.77;;
11763;SDS011;5939;56.522;14.950;2023-04-24T12:55:10;2.13;;;1.60;;
11763;SDS011;5939;56.522;14.950;2023-04-24T12:57:37;1.60;;;1.50;;
11763;SDS011;5939;56.522;14.950;2023-04-24T13:00:04;1.90;;;1.60;;
11763;SDS011;5939;56.522;14.950;2023-04-24T13:02:31;2.03;;;1.80;;
11763;SDS011;5939;56.522;14.950;2023-04-24T13:04:58;1.70;;;1.60;;
11763;SDS011;5939;56.522;14.950;2023-04-24T13:07:24;2.13;;;1.40;;
11763;SDS011;5939;56.522;14.950;2023-04-24T13:09:50;1.70;;;1.60;;
11763;SDS011;5939;56.522;14.950;2023-04-24T13:12:17;1.60;;;1.50;;
11763;SDS011;5939;56.522;14.950;2023-04-24T13:14:43;1.50;;;1.30;;
11763;SDS011;5939;56.522;14.950;2023-04-24T13:17:09;2.13;;;1.50;;
11763;SDS011;5939;56.522;14.950;2023-04-24T13:19:37;1.70;;;1.50;;
11763;SDS011;5939;56.522;14.950;2023-04-24T13:22:04;1.83;;;1.73;;
11763;SDS011;5939;56.522;14.950;2023-04-24T13:24:30;1.60;;;1.50;;
11763;SDS011;5939;56.522;14.950;2023-04-24T13:26:56;2.80;;;1.60;;
11763;SDS011;5939;56.522;14.950;2023-04-24T13:29:22;1.67;;;1.50;;
11763;SDS011;5939;56.522;14.950;2023-04-24T13:31:51;1.70;;;1.60;;
11763;SDS011;5939;56.522;14.950;2023-04-24T13:34:21;1.70;;;1.60;;
11763;SDS011;5939;56.522;14.950;2023-04-24T13:36:54;1.73;;;1.60;;
11763;SDS011;5939;56.522;14.950;2023-04-24T13:39:21;2.20;;;1.60;;
11763;SDS011;5939;56.522;14.950;2023-04-24T13:41:48;1.63;;;1.50;;
11763;SDS011;5939;56.522;14.950;2023-04-24T13:44:17;1.80;;;1.60;;
11763;SDS011;5939;56.522;14.950;2023-04-24T13:46:44;1.60;;;1.50;;
11763;SDS011;5939;56.522;14.950;2023-04-24T13:49:11;1.80;;;1.70;;
11763;SDS011;5939;56.522;14.950;2023-04-24T13:51:38;1.90;;;1.60;;
11763;SDS011;5939;56.522;14.950;2023-04-24T13:54:05;2.73;;;1.40;;
11763;SDS011;5939;56.522;14.950;2023-04-24T13:56:31;1.77;;;1.50;;
11763;SDS011;5939;56.522;14.950;2023-04-24T13:58:56;2.27;;;2.07;;
11763;SDS011;5939;56.522;14.950;2023-04-24T14:01:23;1.77;;;1.57;;
11763;SDS011;5939;56.522;14.950;2023-04-24T14:03:53;2.53;;;1.70;;
11763;SDS011;5939;56.522;14.950;2023-04-24T14:06:20;2.07;;;1.67;;
11763;SDS011;5939;56.522;14.950;2023-04-24T14:08:47;1.80;;;1.70;;
11763;SDS011;5939;56.522;14.950;2023-04-24T14:11:13;1.57;;;1.47;;
11763;SDS011;5939;56.522;14.950;2023-04-24T14:13:40;2.07;;;1.93;;
11763;SDS011;5939;56.522;14.950;2023-04-24T14:16:06;2.27;;;1.73;;
11763;SDS011;5939;56.522;14.950;2023-04-24T14:18:33;1.83;;;1.70;;
11763;SDS011;5939;56.522;14.950;2023-04-24T14:20:59;1.87;;;1.70;;
11763;SDS011;5939;56.522;14.950;2023-04-24T14:23:26;2.37;;;2.17;;
11763;SDS011;5939;56.522;14.950;2023-04-24T14:25:51;2.17;;;1.80;;
11763;SDS011;5939;56.522;14.950;2023-04-24T14:28:18;2.83;;;2.00;;
11763;SDS011;5939;56.522;14.950;2023-04-24T14:30:45;2.10;;;1.90;;
11763;SDS011;5939;56.522;14.950;2023-04-24T14:33:11;2.43;;;2.00;;
11763;SDS011;5939;56.522;14.950;2023-04-24T14:35:38;2.50;;;2.27;;
11763;SDS011;5939;56.522;14.950;2023-04-24T14:38:05;2.50;;;2.30;;
11763;SDS011;5939;56.522;14.950;2023-04-24T14:40:31;2.53;;;2.10;;
11763;SDS011;5939;56.522;14.950;2023-04-24T14:42:57;3.43;;;2.50;;
11763;SDS011;5939;56.522;14.950;2023-04-24T14:45:24;3.60;;;2.47;;
11763;SDS011;5939;56.522;14.950;2023-04-24T14:47:50;2.63;;;2.40;;
11763;SDS011;5939;56.522;14.950;2023-04-24T14:50:16;3.63;;;2.40;;
11763;SDS011;5939;56.522;14.950;2023-04-24T14:52:42;2.87;;;2.30;;
11763;SDS011;5939;56.522;14.950;2023-04-24T14:55:08;4.13;;;2.70;;
11763;SDS011;5939;56.522;14.950;2023-04-24T14:57:33;2.60;;;2.40;;
11763;SDS011;5939;56.522;14.950;2023-04-24T15:00:00;3.13;;;2.50;;